This is the latest recevied weather packets stored in our database for station/object N3EYQ. If no packets are shown the sender has not sent any weather packets the latest 1 day(s).
| Time | Temp. | Humidity | Pressure | Rain* | Wind** | Luminosity | Snow |
|---|---|---|---|---|---|---|---|
| 1836274602 | 11.11° C | 80% | 1021.5 hPa | 0 mm | 0 m/s | - | - |
| 1836274452 | 11.11° C | 80% | 1021.5 hPa | 0 mm | 0 m/s | - | - |
| 1836274002 | 11.67° C | 79% | 1021.5 hPa | 0 mm | 0 m/s | - | - |
| 1778060463 | 17.22° C | 65% | 1007.9 hPa | 0 mm | 0 m/s | - | - |
| 1778059863 | 17.22° C | 65% | 1007.9 hPa | 0 mm | 0 m/s | - | - |
| 1778059263 | 16.67° C | 65% | 1007.6 hPa | 0 mm | 0 m/s | - | - |
| 1778058663 | 16.67° C | 66% | 1007.6 hPa | 0 mm | 0 m/s | - | - |
| 1778058063 | 16.11° C | 66% | 1007.6 hPa | 0 mm | 0 m/s | - | - |
| 1778057462 | 16.11° C | 67% | 1007.9 hPa | 0 mm | 0 m/s | - | - |
| 1778056862 | 15.56° C | 67% | 1007.9 hPa | 0 mm | 0 m/s | - | - |
| 1778056262 | 16.11° C | 65% | 1008.3 hPa | 0 mm | 0 m/s | - | - |
| 1778055663 | 16.11° C | 63% | 1008.3 hPa | 0 mm | 0 m/s | - | - |
| 1778055062 | 16.67° C | 62% | 1008.3 hPa | 0 mm | 0 m/s | - | - |
| 1778054462 | 16.67° C | 61% | 1008.3 hPa | 0 mm | 0 m/s | - | - |
| 1778053862 | 17.22° C | 61% | 1007.9 hPa | 0 mm | 0 m/s | - | - |
| 1778053262 | 17.78° C | 59% | 1008.3 hPa | 0 mm | 0 m/s | - | - |
| 1778052661 | 17.78° C | 58% | 1007.9 hPa | 0 mm | 0 m/s | - | - |
| 1778052061 | 18.33° C | 56% | 1008.3 hPa | 0 mm | 0 m/s | - | - |
| 1778051461 | 18.89° C | 54% | 1008.3 hPa | 0 mm | 0 m/s | - | - |
| 1778050861 | 20° C | 51% | 1008.3 hPa | 0 mm | 0 m/s | - | - |
| 1778050261 | 20.56° C | 50% | 1008.3 hPa | 0 mm | 0 m/s | - | - |
| 1778049662 | 21.11° C | 51% | 1008.3 hPa | 0 mm | 0 m/s | - | - |
| 1778049061 | 21.11° C | 51% | 1008.3 hPa | 0 mm | 0 m/s | - | - |
| 1778048461 | 21.11° C | 50% | 1008.6 hPa | 0 mm | 0 m/s | - | - |
| 1778047860 | 20.56° C | 49% | 1008.6 hPa | 0 mm | 0 m/s | - | - |
* Rain latest hour (hover to see other rain measurements)
** Current wind speed in m/s (hover to see current wind gust speed)